createdAt,value
2023-05-05T00:02:25.294Z,9.00
2023-05-05T00:05:14.944Z,8.90
2023-05-05T00:08:07.538Z,8.80
2023-05-05T00:10:59.926Z,8.70
2023-05-05T00:13:54.331Z,8.80
2023-05-05T00:16:43.904Z,8.80
2023-05-05T00:19:33.709Z,8.80
2023-05-05T00:22:23.466Z,8.80
2023-05-05T00:25:17.975Z,8.80
2023-05-05T00:28:08.379Z,8.70
2023-05-05T00:30:57.945Z,8.70
2023-05-05T00:33:49.915Z,8.70
2023-05-05T00:36:39.871Z,8.70
2023-05-05T00:39:29.321Z,8.80
2023-05-05T00:42:20.639Z,8.70
2023-05-05T00:45:14.877Z,8.80
2023-05-05T00:48:04.730Z,8.70
2023-05-05T00:50:54.255Z,8.70
2023-05-05T00:53:46.094Z,8.60
2023-05-05T00:56:35.775Z,8.70
2023-05-05T00:59:27.842Z,8.70
2023-05-05T01:02:17.472Z,8.60
2023-05-05T01:05:08.254Z,8.50
2023-05-05T01:08:13.280Z,8.60
2023-05-05T01:11:09.513Z,8.60
2023-05-05T01:14:08.147Z,8.60
2023-05-05T01:17:06.165Z,8.60
2023-05-05T01:20:18.879Z,8.60
2023-05-05T01:23:10.109Z,8.60
2023-05-05T01:26:20.687Z,8.60
2023-05-05T01:29:42.621Z,8.70
2023-05-05T01:32:39.809Z,8.70
2023-05-05T01:35:33.280Z,8.60
2023-05-05T01:38:28.251Z,8.60
2023-05-05T01:41:21.496Z,8.60
2023-05-05T01:44:12.887Z,8.60
2023-05-05T01:47:04.911Z,8.60
2023-05-05T01:49:56.827Z,8.60
2023-05-05T01:52:48.557Z,8.60
2023-05-05T01:55:41.307Z,8.60
2023-05-05T01:58:31.928Z,8.60
2023-05-05T02:01:24.437Z,8.60
2023-05-05T02:04:16.357Z,8.50
2023-05-05T02:07:09.052Z,8.50
2023-05-05T02:10:00.030Z,8.60
2023-05-05T02:12:37.173Z,8.60
2023-05-05T02:15:29.601Z,8.60
2023-05-05T02:18:20.537Z,8.50
2023-05-05T02:21:10.150Z,8.50
2023-05-05T02:24:01.456Z,8.50
2023-05-05T02:26:53.710Z,8.50
2023-05-05T02:29:49.660Z,8.40
2023-05-05T02:32:43.202Z,8.40
2023-05-05T02:35:38.666Z,8.30
2023-05-05T02:38:30.676Z,8.20
2023-05-05T02:41:23.396Z,8.20
2023-05-05T02:44:14.604Z,8.20
2023-05-05T02:47:05.918Z,8.10
2023-05-05T02:49:55.320Z,8.10
2023-05-05T02:52:44.920Z,8.10
2023-05-05T02:55:42.630Z,8.00
2023-05-05T02:58:41.113Z,8.00
2023-05-05T03:01:40.030Z,8.10
2023-05-05T03:04:34.686Z,8.00
2023-05-05T03:07:28.090Z,8.00
2023-05-05T03:10:21.806Z,8.00
2023-05-05T03:13:16.378Z,8.00
2023-05-05T03:16:09.301Z,8.10
2023-05-05T03:19:00.757Z,8.00
2023-05-05T03:21:50.352Z,8.00
2023-05-05T03:24:40.192Z,8.00
2023-05-05T03:27:29.727Z,7.90
2023-05-05T03:30:21.203Z,8.00
2023-05-05T03:33:13.156Z,8.10
2023-05-05T03:36:02.916Z,8.10
2023-05-05T03:38:52.206Z,8.10
2023-05-05T03:41:41.880Z,8.10
2023-05-05T03:44:31.355Z,8.20
2023-05-05T03:47:20.770Z,8.20
2023-05-05T03:50:12.421Z,8.20
2023-05-05T03:53:01.987Z,8.20
2023-05-05T03:55:52.708Z,8.30
2023-05-05T03:58:42.579Z,8.20
2023-05-05T04:01:32.650Z,8.30
2023-05-05T04:04:22.664Z,8.40
2023-05-05T04:07:13.592Z,8.40
2023-05-05T04:10:02.930Z,8.40
2023-05-05T04:12:52.485Z,8.40
2023-05-05T04:15:50.055Z,8.50
2023-05-05T04:18:39.453Z,8.60
2023-05-05T04:21:28.860Z,8.70
2023-05-05T04:24:23.638Z,8.70
2023-05-05T04:27:13.098Z,8.80
2023-05-05T04:30:02.563Z,9.00
2023-05-05T04:32:51.938Z,9.10
2023-05-05T04:35:41.790Z,9.10
2023-05-05T04:38:31.267Z,9.20
2023-05-05T04:41:22.147Z,9.30
2023-05-05T04:44:11.535Z,9.40
2023-05-05T04:47:02.400Z,9.50
2023-05-05T04:49:52.153Z,9.60
2023-05-05T04:52:41.991Z,9.70
2023-05-05T04:55:31.540Z,9.60
2023-05-05T04:58:22.395Z,9.70
2023-05-05T05:01:11.918Z,9.80
2023-05-05T05:04:01.426Z,10.00
2023-05-05T05:06:51.305Z,10.20
2023-05-05T05:09:40.732Z,10.30
2023-05-05T05:12:30.220Z,10.20
2023-05-05T05:15:21.261Z,10.10
2023-05-05T05:18:10.704Z,10.00
2023-05-05T05:21:00.204Z,10.10
2023-05-05T05:23:50.012Z,10.10
2023-05-05T05:26:39.422Z,10.20
2023-05-05T05:29:29.094Z,10.00
2023-05-05T05:32:19.909Z,10.20
2023-05-05T05:35:09.973Z,10.50
2023-05-05T05:37:59.436Z,10.20
2023-05-05T05:40:49.051Z,10.10
2023-05-05T05:43:38.799Z,10.20
2023-05-05T05:46:28.310Z,10.10
2023-05-05T05:49:19.405Z,9.90
2023-05-05T05:52:08.853Z,10.00
2023-05-05T05:54:58.982Z,10.20
2023-05-05T05:57:48.538Z,10.30
2023-05-05T06:00:37.988Z,10.40
2023-05-05T06:03:27.846Z,10.50
2023-05-05T06:06:18.911Z,10.40
2023-05-05T06:09:08.328Z,10.60
2023-05-05T06:11:57.809Z,10.70
2023-05-05T06:14:47.394Z,10.50
2023-05-05T06:17:36.886Z,10.50
2023-05-05T06:20:26.705Z,10.40
2023-05-05T06:23:17.634Z,10.50
2023-05-05T06:26:07.405Z,10.60
2023-05-05T06:28:56.806Z,10.70
2023-05-05T06:31:46.575Z,10.70
2023-05-05T06:34:36.258Z,10.60
2023-05-05T06:37:25.504Z,10.40
2023-05-05T06:40:17.802Z,10.40
2023-05-05T06:43:07.181Z,10.40
2023-05-05T06:45:56.658Z,10.40
2023-05-05T06:48:45.981Z,10.70
2023-05-05T06:51:35.574Z,10.70
2023-05-05T06:54:24.977Z,10.70
2023-05-05T06:57:16.394Z,11.00
2023-05-05T07:00:10.077Z,11.40
2023-05-05T07:03:00.319Z,11.20
2023-05-05T07:05:49.812Z,11.20
2023-05-05T07:08:39.646Z,11.30
2023-05-05T07:11:29.100Z,11.30
2023-05-05T07:14:22.075Z,11.60
2023-05-05T07:17:13.760Z,11.80
2023-05-05T07:20:03.396Z,12.00
2023-05-05T07:22:53.303Z,12.30
2023-05-05T07:25:42.944Z,12.60
2023-05-05T07:28:32.577Z,12.90
2023-05-05T07:31:23.804Z,13.10
2023-05-05T07:34:13.427Z,13.30
2023-05-05T07:37:03.662Z,13.30
2023-05-05T07:39:53.131Z,13.20
2023-05-05T07:42:43.928Z,13.40
2023-05-05T07:45:34.279Z,13.20
2023-05-05T07:48:25.251Z,13.20
2023-05-05T07:51:15.257Z,12.90
2023-05-05T07:54:04.652Z,12.80
2023-05-05T07:56:54.854Z,12.90
2023-05-05T07:59:44.514Z,12.90
2023-05-05T08:02:34.097Z,13.00
2023-05-05T08:05:25.135Z,13.40
2023-05-05T08:08:14.775Z,13.80
2023-05-05T08:11:04.659Z,13.80
2023-05-05T08:13:54.357Z,13.90
2023-05-05T08:16:43.881Z,14.00
2023-05-05T08:19:33.428Z,14.10
2023-05-05T08:22:24.278Z,14.10
2023-05-05T08:25:14.471Z,14.10
2023-05-05T08:28:03.918Z,14.10
2023-05-05T08:30:53.744Z,14.30
2023-05-05T08:33:43.311Z,14.40
2023-05-05T08:36:33.058Z,13.80
2023-05-05T08:39:24.132Z,13.60
2023-05-05T08:42:22.273Z,13.30
2023-05-05T08:45:18.705Z,13.30
2023-05-05T08:48:08.473Z,14.00
2023-05-05T08:51:03.213Z,14.50
2023-05-05T08:53:59.771Z,14.10
2023-05-05T08:56:52.967Z,14.50
2023-05-05T08:59:46.275Z,14.30
2023-05-05T09:02:37.779Z,13.80
2023-05-05T09:05:27.596Z,13.40
2023-05-05T09:08:17.311Z,13.30
2023-05-05T09:11:07.359Z,13.80
2023-05-05T09:17:05.644Z,15.10
2023-05-05T09:20:06.134Z,15.30
2023-05-05T09:22:55.975Z,14.50
2023-05-05T09:25:47.872Z,14.30
2023-05-05T09:28:37.749Z,14.20
2023-05-05T09:31:29.317Z,14.00
2023-05-05T09:34:19.232Z,14.00
2023-05-05T09:37:09.111Z,14.20
2023-05-05T09:40:01.133Z,13.90
2023-05-05T09:43:02.489Z,14.70
2023-05-05T09:45:52.536Z,15.10
2023-05-05T09:48:43.817Z,15.20
2023-05-05T09:51:33.507Z,15.50
2023-05-05T09:54:27.738Z,15.70
2023-05-05T09:57:29.611Z,15.60
2023-05-05T10:00:19.547Z,15.60
2023-05-05T10:03:09.039Z,15.80
2023-05-05T10:06:01.539Z,15.40
2023-05-05T10:09:03.216Z,15.10
2023-05-05T10:11:53.506Z,15.10
2023-05-05T10:14:45.483Z,15.30
2023-05-05T10:17:37.783Z,15.40
2023-05-05T10:20:28.828Z,15.70
2023-05-05T10:23:22.214Z,15.70
2023-05-05T10:26:15.628Z,15.30
2023-05-05T10:29:09.331Z,15.00
2023-05-05T10:32:21.437Z,14.60
2023-05-05T10:35:18.859Z,14.90
2023-05-05T10:38:11.263Z,15.70
2023-05-05T10:41:03.103Z,16.00
2023-05-05T10:43:53.624Z,16.20
2023-05-05T10:46:44.832Z,16.50
2023-05-05T10:49:42.569Z,16.40
2023-05-05T10:52:40.339Z,16.10
2023-05-05T10:55:36.843Z,16.30
2023-05-05T10:58:50.903Z,16.70
2023-05-05T11:01:46.192Z,16.60
2023-05-05T11:04:36.132Z,16.60
2023-05-05T11:07:27.526Z,16.70
2023-05-05T11:10:19.180Z,16.80
2023-05-05T11:13:24.311Z,16.70
2023-05-05T11:16:54.101Z,16.50
2023-05-05T11:19:52.693Z,15.90
2023-05-05T11:23:16.623Z,16.10
2023-05-05T11:26:06.228Z,15.90
2023-05-05T11:29:04.096Z,16.40
2023-05-05T11:32:14.499Z,16.70
2023-05-05T11:35:06.730Z,16.50
2023-05-05T11:38:05.468Z,17.00
2023-05-05T11:41:01.212Z,17.40
2023-05-05T11:43:50.811Z,17.70
2023-05-05T11:46:42.654Z,17.60
2023-05-05T11:49:33.992Z,17.40
2023-05-05T11:52:30.291Z,17.40
2023-05-05T11:55:23.893Z,17.50
2023-05-05T11:58:20.399Z,17.50
2023-05-05T12:01:11.052Z,17.20
2023-05-05T12:04:01.270Z,16.80
2023-05-05T12:06:51.051Z,16.80
2023-05-05T12:09:45.520Z,16.10
2023-05-05T12:12:39.917Z,16.60
2023-05-05T12:15:34.051Z,16.80
2023-05-05T12:18:23.662Z,16.60
2023-05-05T12:21:18.256Z,16.00
2023-05-05T12:24:08.830Z,15.10
2023-05-05T12:27:10.082Z,15.20
2023-05-05T12:30:12.538Z,15.70
2023-05-05T12:33:05.864Z,15.90
2023-05-05T12:35:55.648Z,16.10
2023-05-05T12:38:45.110Z,16.50
2023-05-05T12:41:35.242Z,16.60
2023-05-05T12:44:26.752Z,16.70
2023-05-05T12:47:17.435Z,16.20
2023-05-05T12:50:08.075Z,15.90
2023-05-05T12:52:57.519Z,16.00
2023-05-05T12:55:47.400Z,15.80
2023-05-05T12:58:50.119Z,16.20
2023-05-05T13:01:52.469Z,16.80
2023-05-05T13:04:52.073Z,17.00
2023-05-05T13:07:53.164Z,17.80
2023-05-05T13:11:00.025Z,18.60
2023-05-05T13:13:49.577Z,19.60
2023-05-05T13:16:40.462Z,20.40
2023-05-05T13:19:30.406Z,22.40
2023-05-05T13:22:20.045Z,22.10
2023-05-05T13:25:09.792Z,22.70
2023-05-05T13:27:59.686Z,24.40
2023-05-05T13:30:49.053Z,24.00
2023-05-05T13:33:39.959Z,24.50
2023-05-05T13:36:29.454Z,25.60
2023-05-05T13:39:18.993Z,22.90
2023-05-05T13:42:08.793Z,21.00
2023-05-05T13:44:58.655Z,21.10
2023-05-05T13:47:48.545Z,19.00
2023-05-05T13:50:39.599Z,19.80
2023-05-05T13:53:29.028Z,21.50
2023-05-05T13:56:19.453Z,24.00
2023-05-05T13:59:09.949Z,24.50
2023-05-05T14:01:59.774Z,25.70
2023-05-05T14:04:49.357Z,22.80
2023-05-05T14:07:40.312Z,20.50
2023-05-05T14:10:31.793Z,18.80
2023-05-05T14:13:22.744Z,17.60
2023-05-05T14:16:12.860Z,17.00
2023-05-05T14:19:02.552Z,16.50
2023-05-05T14:21:57.851Z,16.70
2023-05-05T14:24:48.970Z,16.80
2023-05-05T14:27:40.249Z,16.30
2023-05-05T14:30:30.270Z,15.60
2023-05-05T14:33:20.120Z,15.50
2023-05-05T14:36:21.119Z,15.30
2023-05-05T14:39:11.732Z,14.90
2023-05-05T14:42:03.337Z,14.40
2023-05-05T14:45:03.810Z,14.20
2023-05-05T14:47:54.474Z,14.20
2023-05-05T14:50:50.311Z,14.40
2023-05-05T14:53:44.478Z,14.50
2023-05-05T14:56:34.916Z,14.60
2023-05-05T14:59:57.836Z,15.00
2023-05-05T15:03:34.476Z,14.80
2023-05-05T15:06:44.327Z,14.60
2023-05-05T15:43:14.682Z,14.50
2023-05-05T15:46:04.438Z,14.40
2023-05-05T15:48:53.811Z,14.00
2023-05-05T15:51:43.269Z,13.80
2023-05-05T15:54:32.616Z,13.60
2023-05-05T15:57:21.889Z,13.50
2023-05-05T16:00:14.413Z,13.30
2023-05-05T16:03:03.846Z,13.00
2023-05-05T16:05:53.393Z,12.90
2023-05-05T16:08:43.370Z,12.70
2023-05-05T16:11:32.677Z,12.70
2023-05-05T16:14:22.533Z,12.60
2023-05-05T16:17:13.415Z,12.40
2023-05-05T16:20:02.715Z,12.40
2023-05-05T16:22:52.360Z,12.40
2023-05-05T16:25:41.993Z,12.30
2023-05-05T16:28:31.365Z,12.20
2023-05-05T16:31:21.476Z,12.10
2023-05-05T16:34:12.291Z,12.10
2023-05-05T16:37:01.583Z,12.00
2023-05-05T16:39:51.033Z,11.90
2023-05-05T16:42:43.680Z,11.80
2023-05-05T16:45:34.092Z,11.70
2023-05-05T16:48:23.499Z,11.60
2023-05-05T16:51:14.420Z,11.60
2023-05-05T16:54:03.740Z,11.50
2023-05-05T16:56:54.417Z,11.40
2023-05-05T16:59:43.737Z,11.30
2023-05-05T17:02:33.644Z,11.10
2023-05-05T17:05:23.137Z,11.00
2023-05-05T17:08:15.125Z,10.90
2023-05-05T17:11:04.437Z,10.80
2023-05-05T17:13:54.276Z,10.70
2023-05-05T17:16:43.857Z,10.70
2023-05-05T17:19:33.458Z,10.60
2023-05-05T17:22:22.824Z,10.50
2023-05-05T17:25:15.186Z,10.40
2023-05-05T17:28:05.070Z,10.30
2023-05-05T17:30:54.804Z,10.10
2023-05-05T17:33:45.482Z,10.00
2023-05-05T17:36:35.778Z,9.90
2023-05-05T17:39:25.669Z,9.80
2023-05-05T17:42:23.710Z,9.60
2023-05-05T17:45:13.636Z,9.50
2023-05-05T17:48:03.421Z,9.30
2023-05-05T17:50:53.650Z,9.10
2023-05-05T17:53:44.309Z,9.00
2023-05-05T17:56:35.250Z,8.80
2023-05-05T17:59:26.526Z,8.60
2023-05-05T18:02:20.303Z,8.50
2023-05-05T18:05:11.806Z,8.30
2023-05-05T18:08:02.868Z,8.10
2023-05-05T18:11:00.803Z,7.90
2023-05-05T18:13:52.118Z,7.80
2023-05-05T18:16:47.964Z,7.70
2023-05-05T18:19:45.323Z,7.50
2023-05-05T18:22:37.982Z,7.40
2023-05-05T18:25:28.893Z,7.30
2023-05-05T18:28:27.060Z,7.10
2023-05-05T18:31:22.553Z,7.00
2023-05-05T18:34:20.882Z,6.90
2023-05-05T18:37:15.615Z,6.80
2023-05-05T18:40:07.252Z,6.70
2023-05-05T18:42:57.676Z,6.60
2023-05-05T18:45:51.682Z,6.60
2023-05-05T18:48:45.491Z,6.50
2023-05-05T18:51:36.910Z,6.50
2023-05-05T18:54:28.278Z,6.40
2023-05-05T18:57:18.760Z,6.40
2023-05-05T19:00:10.834Z,6.40
2023-05-05T19:03:00.366Z,6.40
2023-05-05T19:05:50.383Z,6.30
2023-05-05T19:09:02.589Z,6.30
2023-05-05T19:12:06.470Z,6.20
2023-05-05T19:15:08.006Z,6.20
2023-05-05T19:18:03.084Z,6.30
2023-05-05T19:20:55.998Z,6.20
2023-05-05T19:23:50.645Z,6.10
2023-05-05T19:26:41.790Z,6.00
2023-05-05T19:29:33.223Z,5.90
2023-05-05T19:32:25.330Z,5.80
2023-05-05T19:35:19.813Z,5.70
2023-05-05T19:38:11.578Z,5.70
2023-05-05T19:41:03.452Z,5.60
2023-05-05T19:43:54.387Z,5.50
2023-05-05T19:46:44.908Z,5.40
2023-05-05T19:49:35.244Z,5.30
2023-05-05T19:52:29.803Z,5.30
2023-05-05T19:55:19.942Z,5.20
2023-05-05T19:58:17.492Z,5.10
2023-05-05T20:01:11.643Z,5.00
2023-05-05T20:04:01.918Z,4.90
2023-05-05T20:06:52.522Z,4.80
2023-05-05T20:09:41.974Z,4.70
2023-05-05T20:12:31.916Z,4.60
2023-05-05T20:15:27.326Z,4.60
2023-05-05T20:18:17.960Z,4.40
2023-05-05T20:21:07.582Z,4.40
2023-05-05T20:23:58.260Z,4.30
2023-05-05T20:26:47.817Z,4.20
2023-05-05T20:29:38.272Z,4.20
2023-05-05T20:32:30.678Z,4.20
2023-05-05T20:35:26.094Z,4.20
2023-05-05T20:38:15.927Z,4.20
2023-05-05T20:41:05.342Z,4.10
2023-05-05T20:43:54.726Z,4.00
2023-05-05T20:46:50.412Z,4.00
2023-05-05T20:49:42.011Z,3.90
2023-05-05T20:52:31.538Z,3.90
2023-05-05T20:55:21.140Z,3.90
2023-05-05T20:58:10.648Z,3.80
2023-05-05T21:01:00.424Z,3.80
2023-05-05T21:03:51.975Z,3.70
2023-05-05T21:06:42.898Z,3.70
2023-05-05T21:09:32.693Z,3.80
2023-05-05T21:12:22.097Z,3.80
2023-05-05T21:15:13.513Z,3.70
2023-05-05T21:18:04.183Z,3.70
2023-05-05T21:20:53.645Z,3.60
2023-05-05T21:23:44.583Z,3.60
2023-05-05T21:26:34.181Z,3.50
2023-05-05T21:29:24.830Z,3.50
2023-05-05T21:32:15.560Z,3.50
2023-05-05T21:35:05.640Z,3.40
2023-05-05T21:37:55.258Z,3.40
2023-05-05T21:40:46.665Z,3.40
2023-05-05T21:43:35.965Z,3.30
2023-05-05T21:46:25.491Z,3.30
2023-05-05T21:49:16.014Z,3.20
2023-05-05T21:52:05.483Z,3.20
2023-05-05T21:54:55.130Z,3.20
2023-05-05T21:57:46.394Z,3.20
2023-05-05T22:00:36.717Z,3.20
2023-05-05T22:03:26.941Z,3.20
2023-05-05T22:06:18.911Z,3.20
2023-05-05T22:09:09.148Z,3.20
2023-05-05T22:12:02.728Z,3.20
2023-05-05T22:14:53.922Z,3.20
2023-05-05T22:17:43.215Z,3.20
2023-05-05T22:20:32.957Z,3.30
2023-05-05T22:23:27.233Z,3.30
2023-05-05T22:26:16.554Z,3.40
2023-05-05T22:29:06.005Z,3.40
2023-05-05T22:31:56.884Z,3.40
2023-05-05T22:34:46.369Z,3.40
2023-05-05T22:37:35.735Z,3.50
2023-05-05T22:40:25.261Z,3.50
2023-05-05T22:43:14.623Z,3.50
2023-05-05T22:46:03.965Z,3.50
2023-05-05T22:48:55.170Z,3.50
2023-05-05T22:51:44.727Z,3.50
2023-05-05T22:54:34.319Z,3.40
2023-05-05T22:57:23.841Z,3.40
2023-05-05T23:00:15.041Z,3.30
2023-05-05T23:03:04.362Z,3.30
2023-05-05T23:05:55.687Z,3.30
2023-05-05T23:08:45.281Z,3.30
2023-05-05T23:11:34.746Z,3.30
2023-05-05T23:14:25.471Z,3.20
2023-05-05T23:17:15.908Z,3.20
2023-05-05T23:20:06.677Z,3.20
2023-05-05T23:22:57.417Z,3.10
2023-05-05T23:25:48.225Z,3.10
2023-05-05T23:28:37.789Z,3.00
2023-05-05T23:31:27.428Z,3.10
2023-05-05T23:34:16.906Z,3.00
2023-05-05T23:37:06.613Z,3.00
2023-05-05T23:39:58.483Z,2.90
2023-05-05T23:42:47.880Z,2.80
2023-05-05T23:45:37.272Z,2.70
2023-05-05T23:48:26.707Z,2.60
2023-05-05T23:51:16.614Z,2.50
2023-05-05T23:54:06.105Z,2.50
2023-05-05T23:56:57.216Z,2.50
2023-05-05T23:59:46.834Z,2.40
